Home > Products > Valid Products > TAF

000
FTUS44 KOHX 231400 AAA
TAFBNA
TAF AMD
KBNA 231413Z 2314/2412 04010KT P6SM FEW250
     FM240200 VRB04KT P6SM SCT250
     FM240900 12003KT P6SM FEW250=



000
FTUS44 KOHX 231100
TAFBNA
TAF
KBNA 231120Z 2312/2412 02007KT P6SM FEW250
     FM240300 07004KT P6SM FEW250
     FM240900 12003KT P6SM FEW250=



000
FTUS44 KOHX 231100
TAFCKV
TAF
KCKV 231120Z 2312/2412 04007KT P6SM FEW250
     FM240300 07004KT P6SM FEW250
     FM240700 12003KT P6SM FEW250=



000
FTUS44 KOHX 231100
TAFCSV
TAF
KCSV 231120Z 2312/2412 03006KT P6SM FEW250
     FM240000 00000KT P6SM SKC=



000
FTUS44 KOHX 230500
TAFCKV
TAF
KCKV 230520Z 2306/2406 36005KT P6SM SKC
     FM231300 06007KT P6SM SKC
     FM240200 08003KT P6SM SCT060=



000
FTUS44 KOHX 230500
TAFBNA
TAF
KBNA 230520Z 2306/2406 36008KT P6SM SKC
     FM231400 04009KT P6SM FEW060
     FM240000 06004KT P6SM SKC=



000
FTUS44 KOHX 230500
TAFCSV
TAF
KCSV 230520Z 2306/2406 31010KT P6SM BKN035
     FM230900 35006KT P6SM SKC
     FM231500 03007KT P6SM SCT070
     FM240000 00000KT P6SM SKC=



000
FTUS44 KOHX 230100 AAA
TAFCKV
TAF AMD
KCKV 230101Z 2301/2324 36005KT P6SM SKC
     FM231300 06007KT P6SM SKC=



000
FTUS44 KOHX 230100 AAA
TAFBNA
TAF AMD
KBNA 230101Z 2301/2324 34008KT P6SM FEW060
     FM230400 36008KT P6SM SKC
     FM231400 04011KT P6SM FEW060=



000
FTUS44 KOHX 222300
TAFBNA
TAF
KBNA 222340Z 2300/2324 34012G18KT P6SM FEW060
     FM230400 36008KT P6SM SKC
     FM231400 04011KT P6SM FEW060=



000
FTUS44 KOHX 222300
TAFCKV
TAF
KCKV 222340Z 2300/2324 36010G18KT P6SM SKC
     FM231300 06007KT P6SM SKC=



000
FTUS44 KOHX 222300
TAFCSV
TAF
KCSV 222340Z 2300/2324 31010KT P6SM BKN035
     FM230900 35006KT P6SM SKC
     FM231500 03007KT P6SM SCT070=



000
FTUS44 KOHX 222100 AAC
TAFCSV
TAF AMD
KCSV 222157Z 2222/2318 31010KT P6SM BKN035
     FM230100 33006KT P6SM SCT070
     FM230600 01005KT 2SM BR SKC
     FM231500 01007KT P6SM SKC=



000
FTUS44 KOHX 222000 AAA
TAFCKV
TAF AMD
KCKV 222035Z 2221/2318 33010G18KT P6SM SCT050
     FM230200 01006KT P6SM SKC
     FM231400 06008KT P6SM FEW035=



000
FTUS44 KOHX 222000 AAA
TAFBNA
TAF AMD
KBNA 222034Z 2221/2318 34012G20KT P6SM BKN045 BKN070
     FM230200 35008KT P6SM SCT100
     FM230800 36005KT P6SM SKC
     FM231400 03011KT P6SM SCT035=



000
FTUS44 KOHX 222000 AAB
TAFCSV
TAF AMD
KCSV 222031Z 2221/2318 31010KT P6SM BKN025 BKN035
     FM230100 33006KT P6SM SCT070
     FM230600 01005KT 2SM BR SKC
     FM231500 01007KT P6SM SKC=



000
FTUS44 KOHX 221800 AAA
TAFCSV
TAF AMD
KCSV 221805Z 2218/2318 26005KT P6SM BKN007 OVC010
      TEMPO 2218/2220 3SM -SHRA BR BKN005 OVC007
     FM222000 34008KT 4SM BR BKN005
     FM230000 32009KT P6SM SCT005
     FM230600 01005KT 2SM BR SKC
     FM231500 01007KT P6SM SKC=



000
FTUS44 KOHX 221700
TAFCKV
TAF
KCKV 221734Z 2218/2318 34012KT P6SM SCT020 SCT030 OVC050
     FM221900 36012G22KT P6SM SCT050
     FM230200 03005KT P6SM SKC=



000
FTUS44 KOHX 221700
TAFBNA
TAF
KBNA 221734Z 2218/2318 29004KT P6SM SCT025 BKN080 BKN200
     FM222000 34012G20KT P6SM SCT020
     FM230300 03006KT P6SM SKC=



000
FTUS44 KOHX 221700
TAFCSV
TAF
KCSV 221734Z 2218/2318 29007KT 3SM -SHRA BR BKN005 OVC012
      TEMPO 2218/2220 1SM -SHRA BR BKN003 OVC005
     FM222000 34008KT 4SM BR BKN005
     FM230000 32009KT P6SM SCT005
     FM230600 01005KT 2SM BR SKC
     FM231500 01007KT P6SM SKC=



000
FTUS44 KOHX 221700 AAB
TAFCSV
TAF AMD
KCSV 221703Z 2217/2312 29005KT 2SM BR OVC003
      TEMPO 2217/2218 1SM -SHRA BR
     FM221800 30007KT 4SM BR OVC020
     FM222300 32007KT P6SM SKC=



000
FTUS44 KOHX 221500 AAA
TAFCSV
TAF AMD
KCSV 221505Z 2215/2312 26005KT 4SM BR OVC004
      TEMPO 2215/2217 2SM -SHRA BR
     FM221800 30007KT 4SM BR OVC020
     FM222300 32007KT P6SM SKC=



000
FTUS44 KOHX 221500 AAA
TAFCKV
TAF AMD
KCKV 221502Z 2215/2312 33008KT P6SM BKN015 OVC050
     FM221600 35008G18KT P6SM SCT060
     FM221900 35010G20KT P6SM FEW250
     FM230200 35008KT P6SM SKC=



000
FTUS44 KOHX 221318 AAA
TAFBNA
TAF AMD
KBNA 221318Z 2213/2312 27005KT P6SM VCSH BKN020 OVC050
     FM221500 32008KT P6SM OVC025
     FM221800 33010G18KT P6SM OVC050
     FM222100 34010G20KT P6SM FEW250
     FM230300 35006KT P6SM SKC=



000
FTUS44 KOHX 221100
TAFBNA
TAF
KBNA 221125Z 2212/2312 27005KT P6SM VCSH OVC045
     FM221500 32008KT P6SM OVC025
     FM221800 33010G18KT P6SM OVC050
     FM222100 34010G20KT P6SM FEW250
     FM230300 35006KT P6SM SKC=



000
FTUS44 KOHX 221100
TAFCSV
TAF
KCSV 221125Z 2212/2312 28005KT 4SM -SHRA BR SCT005 SCT010 OVC025
      TEMPO 2212/2216 4SM BR BKN005 OVC015
     FM221800 30007KT 4SM BR OVC020
     FM222300 32007KT P6SM SKC=



000
FTUS44 KOHX 221100
TAFCKV
TAF
KCKV 221125Z 2212/2312 29006KT P6SM SCT015 OVC050
      TEMPO 2212/2214 5SM BR OVC015
     FM221500 35008G18KT P6SM BKN030 OVC050
     FM221700 35010G20KT P6SM OVC050
     FM221900 35010G20KT P6SM FEW250
     FM230200 35008KT P6SM SKC=



000
FTUS44 KOHX 221100 AAB
TAFCSV
TAF AMD
KCSV 221111Z 2211/2306 26005KT 4SM -RA BR BKN006 BKN025 OVC035
      TEMPO 2212/2214 28007KT 4SM BR SCT005 OVC015
     FM221600 30010KT P6SM VCSH OVC020
     FM230000 32007KT P6SM SCT030=



000
FTUS44 KOHX 220800 AAA
TAFCSV
TAF AMD
KCSV 220817Z 2208/2306 26007KT P6SM VCSH OVC070
     FM220930 24003KT 4SM -SHRA BR OVC040
     FM221200 27006KT 4SM -SHRA BR OVC015
      TEMPO 2212/2214 28007KT 4SM BR OVC005
     FM221600 30010KT P6SM VCSH OVC020
     FM230000 32007KT P6SM SCT030=



000
FTUS44 KOHX 220500
TAFBNA
TAF
KBNA 220520Z 2206/2306 23004KT P6SM VCSH OVC050
     FM220900 27007KT P6SM VCSH OVC050
     FM221500 33010G18KT P6SM OVC025
     FM230000 35008KT P6SM SKC=



000
FTUS44 KOHX 220500
TAFCSV
TAF
KCSV 220520Z 2206/2306 26007KT P6SM VCSH OVC050
     FM220700 24003KT 4SM -SHRA BR OVC040
     FM221200 27006KT 4SM -SHRA BR OVC015
      TEMPO 2212/2214 28007KT 4SM BR OVC005
     FM221600 30010KT P6SM VCSH OVC020
     FM230000 32007KT P6SM SCT030=



000
FTUS44 KOHX 220500
TAFCKV
TAF
KCKV 220520Z 2206/2306 23004KT P6SM VCSH OVC050
     FM220800 28007KT P6SM VCSH OVC025
      TEMPO 2209/2212 5SM -SHRA OVC015
     FM221300 34012G18KT P6SM OVC015
     FM221500 35010G18KT P6SM BKN030
     FM230000 35006KT P6SM SKC=



000
FTUS44 KOHX 212300
TAFCKV
TAF
KCKV 212327Z 2200/2224 27007KT P6SM VCSH OVC100
     FM220200 22004KT P6SM VCSH OVC050
     FM220800 28007KT P6SM VCSH OVC025 PROB30 2209/2212 4SM -SHRA
      OVC025
     FM221200 32010G18KT 4SM BR OVC015
     FM221500 32010G18KT P6SM OVC025
     FM221800 36012G20KT P6SM BKN050=



000
FTUS44 KOHX 212300
TAFBNA
TAF
KBNA 212327Z 2200/2224 20007KT P6SM VCSH SCT050 BKN150 BKN250
     FM220200 22004KT P6SM VCSH OVC050
     FM220900 27007KT P6SM VCSH OVC050 PROB30 2209/2215 4SM -SHRA
      OVC025
     FM221500 32010G18KT P6SM OVC025
     FM221800 35012G20KT P6SM SCT250=



000
FTUS44 KOHX 212300
TAFCSV
TAF
KCSV 212327Z 2200/2224 26007KT 6SM HZ BKN150
     FM220700 24003KT 4SM -SHRA BR OVC040
     FM221200 27006KT 4SM -SHRA BR OVC015
     FM221600 30010G18KT P6SM OVC015
     FM222000 32010G18KT P6SM OVC050=



000
FTUS44 KOHX 212300 AAB
TAFCSV
TAF AMD
KCSV 212304Z 2123/2218 26008KT 6SM HZ BKN150
     FM220500 23006KT P6SM VCSH BKN040 OVC150
     FM220900 24005KT 6SM -RA BR BKN025 OVC050
     FM221400 28008KT 5SM -SHRA BR OVC015=



000
FTUS44 KOHX 212300 AAA
TAFCKV
TAF AMD
KCKV 212303Z 2123/2218 27007KT P6SM VCSH OVC100
     FM220800 24004KT 6SM -SHRA OVC040
     FM221100 29008KT 4SM -SHRA BR OVC018
     FM221500 34012KT P6SM BKN030=



000
FTUS44 KOHX 212300 AAB
TAFBNA
TAF AMD
KBNA 212303Z 2123/2218 20007KT P6SM VCSH FEW080 BKN150 BKN250
     FM220000 23006KT P6SM VCSH OVC060
     FM220900 25005KT 6SM -SHRA BR OVC035
     FM221300 29008KT 4SM -SHRA BR OVC018=



000
FTUS44 KOHX 212100 AAA
TAFCSV
TAF AMD
KCSV 212140Z 2122/2218 28011G17KT P6SM BKN150
     FM220500 23006KT P6SM VCSH BKN040 OVC150
     FM220900 24005KT 6SM -RA BR BKN025 OVC050
     FM221400 28008KT 5SM -SHRA BR OVC015=



000
FTUS44 KOHX 212100 AAA
TAFBNA
TAF AMD
KBNA 212139Z 2122/2218 20011G21KT P6SM VCSH FEW070 SCT080 BKN140
     FM220000 23006KT P6SM VCSH OVC060
     FM220900 25005KT 6SM -SHRA BR OVC035
     FM221300 29008KT 4SM -SHRA BR OVC018=



000
FTUS44 KOHX 211700
TAFCSV
TAF
KCSV 211730Z 2118/2218 23006KT P6SM SCT060 BKN250
     FM220500 23005KT P6SM VCSH BKN040 OVC150
     FM220900 24005KT 6SM -RA BR BKN025 OVC050
     FM221400 28008KT 5SM -SHRA BR OVC015=



000
FTUS44 KOHX 211700
TAFBNA
TAF
KBNA 211730Z 2118/2218 21008KT P6SM BKN250
     FM220000 23005KT P6SM VCSH OVC060
     FM220900 25005KT 6SM -SHRA BR OVC035
     FM221300 29008KT 4SM -SHRA BR OVC018=



000
FTUS44 KOHX 211700
TAFCKV
TAF
KCKV 211730Z 2118/2218 23008KT P6SM BKN250
     FM212300 24008KT P6SM VCSH BKN050
     FM220800 24004KT 6SM -SHRA OVC040
     FM221100 29008KT 4SM -SHRA BR OVC018
     FM221500 34012KT P6SM BKN030=



000
FTUS44 KOHX 211100
TAFBNA
TAF
KBNA 211126Z 2112/2212 21009KT P6SM SCT070 BKN250
     FM220000 23005KT P6SM VCSH OVC060
     FM220500 25005KT 6SM -SHRA SCT020 OVC035=



000
FTUS44 KOHX 211100
TAFCKV
TAF
KCKV 211126Z 2112/2212 21011KT P6SM SCT060 BKN250
     FM212200 24008KT P6SM VCSH BKN050
     FM220300 24004KT P6SM -SHRA OVC040
     FM220900 28008KT 5SM BR VCSH BKN025=



000
FTUS44 KOHX 211100
TAFCSV
TAF
KCSV 211126Z 2112/2212 VRB03KT P6SM SCT250
     FM211600 23008KT P6SM SCT060 BKN250
     FM220500 23005KT P6SM VCSH BKN040 OVC150
     FM220900 24005KT 5SM -RA BR BKN025 OVC050=



000
FTUS44 KOHX 210500
TAFBNA
TAF
KBNA 210529Z 2106/2206 VRB03KT P6SM SCT250
     FM211400 21008KT P6SM SCT060 BKN250
     FM220000 23004KT P6SM VCSH OVC060=



000
FTUS44 KOHX 210500
TAFCSV
TAF
KCSV 210529Z 2106/2206 00000KT P6SM SCT250
     FM211400 23007KT P6SM SCT060 BKN250
     FM212100 23005KT P6SM BKN050 OVC150=



000
FTUS44 KOHX 210500
TAFCKV
TAF
KCKV 210529Z 2106/2206 VRB03KT P6SM SCT250
     FM211400 22011KT P6SM SCT060 BKN250
     FM212200 23008KT P6SM VCSH BKN050
     FM220200 22004KT P6SM RA OVC040=



000
FTUS44 KOHX 202300
TAFBNA
TAF
KBNA 202325Z 2100/2124 VRB03KT P6SM SCT250
     FM211400 21008KT P6SM SCT060 BKN250=



000
FTUS44 KOHX 202300
TAFCSV
TAF
KCSV 202325Z 2100/2124 00000KT P6SM SCT250
     FM211400 23007KT P6SM SCT060 BKN250=



000
FTUS44 KOHX 202300
TAFCKV
TAF
KCKV 202325Z 2100/2124 VRB03KT P6SM SCT250
     FM211400 22010G18KT P6SM SCT060 BKN250=



000
FTUS44 KOHX 201700
TAFCKV
TAF
KCKV 201720Z 2018/2118 VRB04KT P6SM SKC
     FM210900 00000KT P6SM BKN150
     FM211400 24008KT P6SM SCT060 OVC150=



000
FTUS44 KOHX 201700
TAFCSV
TAF
KCSV 201720Z 2018/2118 VRB04KT P6SM SKC
     FM211400 00000KT P6SM SCT150
     FM211700 24006KT P6SM BKN150=



000
FTUS44 KOHX 201700
TAFBNA
TAF
KBNA 201720Z 2018/2118 VRB04KT P6SM SCT200
     FM211000 00000KT P6SM BKN150
     FM211500 21006KT P6SM SCT060 OVC150=



    US Dept of Commerce
    National Oceanic and Atmospheric Administration
    National Weather Service
    1325 East West Highway
    Silver Spring, MD 20910
    Page Author: NWS Internet Services Team
Disclaimer
Information Quality
Credits
Glossary
Privacy Policy
Freedom of Information Act (FOIA)
About Us
Career Opportunities